createdAt,value
2023-03-30T00:01:47.869Z,12.93
2023-03-30T00:04:16.233Z,12.86
2023-03-30T00:06:46.900Z,13.02
2023-03-30T00:09:15.562Z,12.95
2023-03-30T00:11:45.587Z,12.85
2023-03-30T00:14:13.798Z,12.86
2023-03-30T00:16:41.842Z,12.86
2023-03-30T00:19:10.161Z,12.94
2023-03-30T00:21:45.555Z,12.73
2023-03-30T00:24:13.670Z,12.94
2023-03-30T00:26:41.986Z,13.05
2023-03-30T00:29:10.172Z,13.17
2023-03-30T00:31:40.247Z,12.80
2023-03-30T00:34:09.680Z,12.58
2023-03-30T00:36:42.081Z,12.62
2023-03-30T00:39:10.949Z,12.87
2023-03-30T00:41:39.288Z,12.95
2023-03-30T00:44:29.012Z,12.72
2023-03-30T00:46:57.070Z,12.57
2023-03-30T00:49:26.747Z,12.10
2023-03-30T00:51:57.196Z,12.12
2023-03-30T00:54:26.434Z,12.01
2023-03-30T00:56:54.416Z,12.45
2023-03-30T00:59:26.773Z,12.45
2023-03-30T01:01:55.438Z,12.90
2023-03-30T01:04:26.114Z,12.99
2023-03-30T01:06:57.986Z,12.99
2023-03-30T01:09:26.592Z,13.13
2023-03-30T01:11:58.356Z,12.77
2023-03-30T01:14:26.655Z,12.73
2023-03-30T01:17:03.199Z,13.09
2023-03-30T01:19:35.005Z,13.13
2023-03-30T01:22:06.020Z,12.95
2023-03-30T01:24:53.461Z,12.78
2023-03-30T01:27:48.408Z,12.79
2023-03-30T01:30:33.326Z,12.88
2023-03-30T01:33:19.022Z,12.75
2023-03-30T01:36:01.220Z,12.84
2023-03-30T01:39:03.586Z,13.08
2023-03-30T01:41:52.667Z,13.14
2023-03-30T01:44:36.808Z,13.06
2023-03-30T01:47:18.684Z,12.87
2023-03-30T01:50:05.185Z,12.65
2023-03-30T01:52:41.659Z,12.72
2023-03-30T01:55:17.401Z,12.73
2023-03-30T01:58:23.161Z,12.64
2023-03-30T02:00:55.939Z,12.92
2023-03-30T02:03:36.504Z,12.87
2023-03-30T02:06:16.005Z,12.77
2023-03-30T02:08:51.665Z,12.88
2023-03-30T02:11:20.831Z,12.98
2023-03-30T02:13:51.118Z,13.19
2023-03-30T02:16:29.031Z,13.46
2023-03-30T02:18:59.901Z,13.29
2023-03-30T02:21:35.510Z,13.42
2023-03-30T02:24:06.967Z,13.54
2023-03-30T02:26:36.884Z,13.64
2023-03-30T02:29:06.659Z,13.47
2023-03-30T02:31:35.372Z,13.81
2023-03-30T02:34:18.900Z,13.59
2023-03-30T02:37:00.489Z,13.16
2023-03-30T02:39:39.403Z,13.12
2023-03-30T02:42:39.134Z,13.31
2023-03-30T02:45:28.857Z,13.27
2023-03-30T02:48:15.128Z,13.47
2023-03-30T02:50:53.093Z,13.38
2023-03-30T02:54:12.694Z,13.50
2023-03-30T02:57:13.855Z,13.72
2023-03-30T02:59:55.512Z,13.30
2023-03-30T03:02:30.471Z,13.30
2023-03-30T03:05:10.609Z,13.14
2023-03-30T03:07:56.784Z,12.83
2023-03-30T03:10:25.402Z,12.92
2023-03-30T03:12:56.634Z,13.36
2023-03-30T03:15:26.198Z,13.44
2023-03-30T03:18:04.747Z,13.47
2023-03-30T03:20:37.568Z,13.38
2023-03-30T03:23:11.448Z,13.56
2023-03-30T03:25:49.259Z,13.48
2023-03-30T03:28:19.921Z,13.49
2023-03-30T03:30:53.359Z,13.61
2023-03-30T03:33:27.357Z,13.68
2023-03-30T03:36:04.341Z,13.47
2023-03-30T03:38:33.209Z,13.20
2023-03-30T03:41:01.483Z,13.20
2023-03-30T03:43:30.784Z,13.32
2023-03-30T03:45:59.557Z,13.52
2023-03-30T03:48:29.626Z,13.43
2023-03-30T03:51:03.540Z,13.52
2023-03-30T03:53:34.696Z,13.56
2023-03-30T03:56:06.466Z,13.77
2023-03-30T03:58:35.469Z,13.89
2023-03-30T04:01:04.986Z,13.83
2023-03-30T04:03:34.390Z,13.83
2023-03-30T04:06:05.646Z,13.79
2023-03-30T04:08:36.526Z,13.85
2023-03-30T04:11:22.752Z,14.30
2023-03-30T04:14:02.163Z,14.79
2023-03-30T04:16:45.709Z,15.56
2023-03-30T04:19:38.386Z,16.14
2023-03-30T04:22:36.125Z,16.58
2023-03-30T04:25:29.325Z,16.49
2023-03-30T04:28:05.290Z,16.78
2023-03-30T04:30:52.346Z,17.37
2023-03-30T04:33:53.640Z,18.10
2023-03-30T04:36:48.951Z,18.54
2023-03-30T04:39:36.142Z,19.29
2023-03-30T04:42:30.121Z,20.10
2023-03-30T04:45:31.124Z,20.95
2023-03-30T04:48:26.494Z,21.50
2023-03-30T04:51:13.307Z,22.14
2023-03-30T04:54:02.464Z,22.61
2023-03-30T04:56:30.991Z,22.95
2023-03-30T04:59:18.253Z,22.86
2023-03-30T05:02:04.058Z,22.00
2023-03-30T05:05:04.396Z,22.35
2023-03-30T05:07:53.968Z,22.76
2023-03-30T05:10:34.447Z,22.86
2023-03-30T05:13:18.315Z,22.81
2023-03-30T05:15:57.945Z,23.21
2023-03-30T05:18:56.706Z,23.68
2023-03-30T05:21:46.273Z,23.87
2023-03-30T05:24:28.418Z,23.89
2023-03-30T05:27:18.584Z,24.22
2023-03-30T05:29:53.192Z,24.39
2023-03-30T05:32:47.264Z,24.87
2023-03-30T05:35:27.477Z,25.28
2023-03-30T05:38:14.669Z,25.62
2023-03-30T05:40:53.878Z,25.62
2023-03-30T05:43:45.787Z,25.56
2023-03-30T05:46:24.843Z,25.84
2023-03-30T05:49:18.614Z,26.03
2023-03-30T05:52:06.123Z,26.31
2023-03-30T05:54:53.139Z,26.39
2023-03-30T05:57:59.602Z,26.44
2023-03-30T06:00:37.000Z,27.01
2023-03-30T06:03:13.902Z,27.42
2023-03-30T06:05:45.668Z,27.56
2023-03-30T06:08:15.146Z,27.17
2023-03-30T06:10:52.376Z,27.42
2023-03-30T06:13:20.914Z,27.81
2023-03-30T06:16:00.850Z,28.00
2023-03-30T06:18:32.008Z,28.13
2023-03-30T06:21:08.790Z,28.26
2023-03-30T06:23:49.302Z,28.41
2023-03-30T06:26:20.507Z,27.94
2023-03-30T06:28:51.989Z,27.67
2023-03-30T06:31:20.486Z,27.30
2023-03-30T06:33:56.893Z,27.56
2023-03-30T06:36:45.292Z,28.07
2023-03-30T06:39:14.121Z,28.45
2023-03-30T06:41:42.645Z,28.32
2023-03-30T06:44:24.394Z,28.14
2023-03-30T06:46:55.095Z,28.52
2023-03-30T06:49:23.310Z,28.69
2023-03-30T06:52:18.616Z,28.32
2023-03-30T06:54:47.167Z,27.71
2023-03-30T06:57:15.626Z,27.70
2023-03-30T06:59:44.908Z,28.09
2023-03-30T07:02:22.441Z,28.20
2023-03-30T07:05:08.182Z,28.60
2023-03-30T07:07:57.621Z,28.58
2023-03-30T07:10:25.950Z,28.67
2023-03-30T07:12:54.964Z,28.84
2023-03-30T07:15:25.334Z,28.73
2023-03-30T07:17:53.643Z,28.31
2023-03-30T07:20:23.464Z,27.94
2023-03-30T07:23:06.264Z,27.67
2023-03-30T07:25:36.401Z,27.49
2023-03-30T07:28:14.374Z,27.62
2023-03-30T07:30:44.019Z,27.70
2023-03-30T07:33:14.810Z,27.15
2023-03-30T07:35:45.786Z,27.25
2023-03-30T07:38:16.301Z,27.38
2023-03-30T07:40:48.701Z,27.88
2023-03-30T07:43:17.328Z,28.69
2023-03-30T07:45:48.103Z,29.07
2023-03-30T07:48:21.572Z,29.35
2023-03-30T07:50:50.783Z,29.27
2023-03-30T07:53:18.996Z,29.12
2023-03-30T07:55:48.198Z,29.08
2023-03-30T07:58:22.550Z,29.31
2023-03-30T08:00:50.866Z,29.28
2023-03-30T08:03:39.318Z,29.32
2023-03-30T08:06:08.880Z,29.33
2023-03-30T08:08:41.401Z,29.46
2023-03-30T08:11:11.266Z,29.36
2023-03-30T08:13:41.724Z,29.21
2023-03-30T08:16:11.852Z,29.71
2023-03-30T08:18:43.131Z,29.85
2023-03-30T08:21:13.199Z,29.89
2023-03-30T08:23:44.320Z,29.47
2023-03-30T08:26:12.580Z,29.21
2023-03-30T08:28:49.148Z,29.08
2023-03-30T08:31:21.136Z,29.13
2023-03-30T08:33:52.286Z,29.43
2023-03-30T08:36:22.293Z,29.21
2023-03-30T08:38:50.626Z,29.41
2023-03-30T08:41:57.931Z,29.50
2023-03-30T08:44:43.443Z,29.96
2023-03-30T08:47:14.714Z,30.09
2023-03-30T08:50:00.726Z,30.17
2023-03-30T08:52:36.450Z,29.97
2023-03-30T08:55:05.208Z,30.02
2023-03-30T08:57:57.635Z,30.12
2023-03-30T09:01:11.357Z,30.22
2023-03-30T09:03:51.851Z,30.19
2023-03-30T09:06:26.890Z,29.85
2023-03-30T09:08:55.225Z,29.95
2023-03-30T09:11:33.269Z,29.53
2023-03-30T09:14:05.395Z,28.96
2023-03-30T09:16:38.377Z,29.12
2023-03-30T09:19:19.966Z,29.42
2023-03-30T09:21:48.432Z,29.93
2023-03-30T09:24:24.669Z,29.17
2023-03-30T09:27:03.754Z,28.51
2023-03-30T09:29:49.512Z,27.91
2023-03-30T09:32:33.635Z,28.26
2023-03-30T09:35:08.144Z,28.60
2023-03-30T09:37:36.607Z,28.68
2023-03-30T09:40:27.639Z,28.64
2023-03-30T09:43:01.845Z,28.13
2023-03-30T09:45:33.254Z,28.20
2023-03-30T09:48:07.778Z,28.55
2023-03-30T09:50:45.889Z,29.03
2023-03-30T09:53:26.599Z,28.28
2023-03-30T09:56:00.392Z,28.31
2023-03-30T09:58:34.172Z,28.37
2023-03-30T10:01:14.802Z,29.12
2023-03-30T10:04:06.757Z,29.26
2023-03-30T10:06:38.132Z,29.24
2023-03-30T10:09:11.458Z,28.91
2023-03-30T10:11:51.514Z,28.88
2023-03-30T10:14:36.386Z,28.69
2023-03-30T10:17:06.565Z,28.84
2023-03-30T10:19:37.933Z,28.57
2023-03-30T10:22:17.079Z,28.17
2023-03-30T10:24:57.099Z,28.03
2023-03-30T10:27:29.301Z,28.11
2023-03-30T10:30:10.451Z,28.71
2023-03-30T10:32:41.046Z,28.71
2023-03-30T10:35:10.263Z,28.78
2023-03-30T10:37:39.734Z,28.62
2023-03-30T10:40:18.049Z,28.86
2023-03-30T10:42:47.533Z,28.70
2023-03-30T10:45:34.535Z,27.91
2023-03-30T10:48:24.444Z,28.03
2023-03-30T10:52:05.381Z,25.33
2023-03-30T10:54:33.235Z,27.74
2023-03-30T10:57:12.681Z,28.07
2023-03-30T10:59:58.608Z,28.45
2023-03-30T11:02:49.823Z,28.71
2023-03-30T11:05:22.856Z,28.24
2023-03-30T11:08:07.734Z,28.08
2023-03-30T11:10:46.325Z,27.76
2023-03-30T11:13:24.250Z,28.11
2023-03-30T11:15:59.519Z,28.11
2023-03-30T11:18:39.801Z,28.16
2023-03-30T11:21:42.711Z,28.00
2023-03-30T11:24:20.830Z,28.04
2023-03-30T11:26:58.998Z,28.20
2023-03-30T11:29:45.775Z,28.05
2023-03-30T11:32:16.925Z,27.92
2023-03-30T11:34:46.225Z,28.19
2023-03-30T11:37:30.788Z,28.40
2023-03-30T11:40:08.485Z,28.58
2023-03-30T11:42:37.185Z,28.51
2023-03-30T11:45:16.295Z,27.96
2023-03-30T11:47:50.393Z,27.78
2023-03-30T11:50:30.886Z,28.14
2023-03-30T11:53:14.490Z,28.17
2023-03-30T11:55:51.299Z,27.88
2023-03-30T11:58:34.583Z,27.64
2023-03-30T12:01:21.938Z,27.66
2023-03-30T12:04:12.973Z,27.45
2023-03-30T12:06:42.271Z,27.28
2023-03-30T12:09:13.573Z,27.13
2023-03-30T12:12:05.593Z,27.24
2023-03-30T12:14:55.836Z,26.90
2023-03-30T12:17:49.780Z,27.05
2023-03-30T12:20:24.234Z,26.91
2023-03-30T12:22:58.734Z,27.03
2023-03-30T12:26:01.788Z,26.89
2023-03-30T12:29:05.089Z,26.82
2023-03-30T12:31:50.873Z,26.87
2023-03-30T12:34:19.926Z,26.85
2023-03-30T12:36:49.325Z,26.70
2023-03-30T12:39:22.039Z,26.27
2023-03-30T12:41:50.545Z,26.09
2023-03-30T12:44:50.964Z,26.09
2023-03-30T12:47:22.702Z,26.48
2023-03-30T12:50:12.564Z,26.62
2023-03-30T12:52:53.029Z,26.77
2023-03-30T12:55:27.334Z,26.54
2023-03-30T12:58:07.768Z,26.29
2023-03-30T13:01:09.305Z,26.43
2023-03-30T13:03:42.788Z,26.47
2023-03-30T13:06:22.025Z,26.53
2023-03-30T13:08:56.935Z,26.52
2023-03-30T13:11:25.020Z,26.47
2023-03-30T13:14:03.233Z,26.49
2023-03-30T13:17:11.758Z,26.39
2023-03-30T13:19:45.557Z,26.53
2023-03-30T13:22:17.288Z,26.37
2023-03-30T13:24:47.111Z,26.28
2023-03-30T13:27:20.428Z,26.11
2023-03-30T13:30:10.380Z,25.94
2023-03-30T13:33:04.803Z,25.89
2023-03-30T13:35:39.162Z,25.90
2023-03-30T13:38:21.310Z,25.67
2023-03-30T13:41:23.356Z,25.42
2023-03-30T13:44:14.569Z,25.12
2023-03-30T13:47:18.187Z,24.81
2023-03-30T13:50:03.482Z,24.34
2023-03-30T13:52:39.949Z,23.83
2023-03-30T13:55:33.098Z,24.13
2023-03-30T13:58:04.447Z,24.07
2023-03-30T14:00:47.175Z,23.52
2023-03-30T14:03:31.909Z,23.42
2023-03-30T14:06:02.953Z,23.35
2023-03-30T14:08:35.755Z,23.45
2023-03-30T14:11:22.964Z,23.43
2023-03-30T14:13:52.592Z,23.49
2023-03-30T14:16:23.606Z,23.28
2023-03-30T14:19:15.581Z,23.40
2023-03-30T14:21:45.496Z,23.48
2023-03-30T14:24:19.783Z,23.43
2023-03-30T14:26:50.309Z,23.49
2023-03-30T14:29:30.509Z,23.52
2023-03-30T14:32:09.820Z,22.99
2023-03-30T14:34:39.875Z,23.27
2023-03-30T14:37:08.310Z,23.16
2023-03-30T14:39:39.997Z,23.03
2023-03-30T14:42:31.473Z,23.02
2023-03-30T14:44:59.542Z,23.17
2023-03-30T14:47:27.956Z,23.21
2023-03-30T14:49:58.219Z,23.07
2023-03-30T14:52:44.432Z,22.81
2023-03-30T14:55:17.584Z,22.76
2023-03-30T14:57:47.289Z,22.89
2023-03-30T15:00:18.793Z,23.18
2023-03-30T15:03:05.264Z,23.33
2023-03-30T15:05:36.166Z,23.29
2023-03-30T15:08:04.230Z,23.06
2023-03-30T15:10:50.771Z,22.85
2023-03-30T15:13:24.902Z,23.00
2023-03-30T15:15:54.405Z,22.83
2023-03-30T15:18:30.154Z,22.61
2023-03-30T15:20:58.086Z,22.55
2023-03-30T15:23:29.648Z,22.57
2023-03-30T15:25:59.955Z,22.43
2023-03-30T15:28:30.985Z,22.20
2023-03-30T15:30:58.954Z,22.13
2023-03-30T15:33:42.656Z,22.22
2023-03-30T15:36:13.507Z,22.60
2023-03-30T15:38:59.784Z,22.79
2023-03-30T15:41:57.063Z,22.34
2023-03-30T15:44:25.170Z,21.86
2023-03-30T15:46:57.078Z,21.68
2023-03-30T15:49:31.335Z,21.85
2023-03-30T15:52:01.954Z,22.01
2023-03-30T15:54:34.961Z,22.06
2023-03-30T15:57:27.057Z,22.17
2023-03-30T16:00:06.875Z,21.95
2023-03-30T16:02:40.255Z,21.79
2023-03-30T16:05:17.256Z,21.69
2023-03-30T16:07:46.665Z,21.72
2023-03-30T16:10:31.947Z,21.71
2023-03-30T16:13:02.559Z,21.74
2023-03-30T16:15:32.116Z,21.79
2023-03-30T16:18:01.891Z,21.25
2023-03-30T16:20:31.803Z,21.08
2023-03-30T16:22:59.763Z,21.31
2023-03-30T16:25:37.806Z,21.22
2023-03-30T16:28:16.325Z,21.11
2023-03-30T16:30:47.270Z,21.13
2023-03-30T16:33:17.275Z,21.21
2023-03-30T16:35:45.717Z,21.13
2023-03-30T16:38:14.680Z,20.87
2023-03-30T16:40:49.022Z,20.40
2023-03-30T16:43:19.456Z,20.20
2023-03-30T16:45:48.088Z,20.08
2023-03-30T16:48:16.622Z,19.83
2023-03-30T16:50:48.924Z,19.49
2023-03-30T16:53:16.894Z,19.18
2023-03-30T16:55:44.897Z,19.12
2023-03-30T16:58:15.815Z,19.10
2023-03-30T17:00:50.402Z,19.13
2023-03-30T17:03:19.525Z,19.03
2023-03-30T17:05:51.519Z,18.80
2023-03-30T17:08:23.646Z,18.75
2023-03-30T17:10:52.816Z,18.37
2023-03-30T17:13:29.506Z,18.56
2023-03-30T17:16:17.661Z,18.17
2023-03-30T17:18:47.311Z,18.06
2023-03-30T17:21:16.793Z,17.97
2023-03-30T17:23:47.914Z,17.71
2023-03-30T17:26:17.160Z,18.03
2023-03-30T17:28:46.418Z,18.36
2023-03-30T17:31:21.535Z,18.02
2023-03-30T17:33:50.747Z,17.50
2023-03-30T17:36:20.026Z,17.30
2023-03-30T17:38:52.841Z,17.21
2023-03-30T17:41:21.290Z,17.11
2023-03-30T17:43:49.378Z,16.85
2023-03-30T17:46:18.919Z,16.71
2023-03-30T17:48:47.489Z,16.79
2023-03-30T17:51:16.047Z,16.74
2023-03-30T17:53:44.937Z,16.78
2023-03-30T17:56:19.768Z,16.66
2023-03-30T17:58:49.779Z,16.46
2023-03-30T18:01:17.862Z,16.51
2023-03-30T18:03:46.563Z,16.45
2023-03-30T18:06:14.524Z,16.46
2023-03-30T18:08:43.921Z,16.60
2023-03-30T18:11:11.916Z,16.45
2023-03-30T18:13:40.419Z,16.46
2023-03-30T18:16:10.595Z,16.55
2023-03-30T18:18:39.685Z,16.46
2023-03-30T18:21:09.615Z,16.44
2023-03-30T18:23:38.806Z,16.50
2023-03-30T18:26:11.291Z,16.55
2023-03-30T18:28:43.857Z,16.47
2023-03-30T18:31:12.834Z,16.71
2023-03-30T18:33:41.192Z,16.48
2023-03-30T18:36:13.463Z,16.46
2023-03-30T18:38:42.462Z,16.38
2023-03-30T18:41:12.840Z,16.56
2023-03-30T18:43:41.166Z,16.36
2023-03-30T18:46:11.267Z,16.27
2023-03-30T18:48:41.842Z,15.77
2023-03-30T18:51:11.850Z,15.26
2023-03-30T18:53:42.561Z,15.15
2023-03-30T18:56:12.624Z,14.92
2023-03-30T18:58:43.366Z,14.64
2023-03-30T19:01:17.045Z,14.56
2023-03-30T19:03:47.153Z,14.62
2023-03-30T19:06:17.333Z,14.74
2023-03-30T19:08:49.219Z,14.62
2023-03-30T19:11:19.676Z,14.39
2023-03-30T19:13:47.862Z,14.32
2023-03-30T19:16:18.805Z,14.17
2023-03-30T19:18:49.793Z,14.47
2023-03-30T19:21:17.881Z,14.68
2023-03-30T19:23:46.322Z,14.63
2023-03-30T19:26:14.318Z,14.41
2023-03-30T19:28:44.016Z,14.47
2023-03-30T19:31:15.846Z,14.65
2023-03-30T19:33:44.138Z,14.47
2023-03-30T19:36:14.198Z,14.40
2023-03-30T19:38:44.107Z,14.11
2023-03-30T19:41:12.376Z,14.19
2023-03-30T19:43:42.258Z,14.32
2023-03-30T19:46:10.521Z,14.42
2023-03-30T19:48:38.676Z,14.57
2023-03-30T19:51:07.173Z,14.54
2023-03-30T19:53:38.077Z,14.59
2023-03-30T19:56:11.167Z,14.43
2023-03-30T19:58:39.214Z,14.47
2023-03-30T20:01:08.249Z,14.66
2023-03-30T20:03:37.398Z,14.35
2023-03-30T20:06:09.496Z,14.50
2023-03-30T20:08:38.993Z,14.51
2023-03-30T20:11:08.761Z,14.73
2023-03-30T20:13:36.897Z,14.91
2023-03-30T20:16:06.318Z,14.84
2023-03-30T20:18:35.704Z,14.87
2023-03-30T20:21:04.535Z,14.92
2023-03-30T20:23:33.268Z,15.10
2023-03-30T20:26:04.471Z,15.24
2023-03-30T20:28:34.169Z,15.42
2023-03-30T20:31:04.012Z,15.43
2023-03-30T20:33:33.225Z,15.22
2023-03-30T20:36:01.592Z,15.40
2023-03-30T20:38:29.946Z,15.44
2023-03-30T20:41:00.866Z,15.54
2023-03-30T20:43:28.917Z,15.31
2023-03-30T20:46:03.882Z,15.31
2023-03-30T20:48:42.140Z,15.53
2023-03-30T20:51:11.778Z,15.07
2023-03-30T20:53:39.963Z,15.22
2023-03-30T20:56:09.313Z,15.27
2023-03-30T20:58:38.568Z,15.35
2023-03-30T21:01:28.213Z,15.47
2023-03-30T21:03:59.203Z,15.59
2023-03-30T21:06:28.784Z,15.56
2023-03-30T21:08:58.766Z,15.75
2023-03-30T21:11:27.916Z,15.77
2023-03-30T21:14:02.383Z,15.85
2023-03-30T21:16:31.749Z,15.93
2023-03-30T21:19:00.846Z,15.82
2023-03-30T21:21:31.416Z,15.75
2023-03-30T21:24:00.650Z,15.88
2023-03-30T21:26:29.450Z,15.95
2023-03-30T21:28:58.787Z,16.26
2023-03-30T21:31:30.918Z,16.38
2023-03-30T21:34:00.096Z,16.44
2023-03-30T21:36:28.029Z,16.32
2023-03-30T21:38:57.655Z,16.26
2023-03-30T21:41:26.569Z,16.59
2023-03-30T21:43:55.358Z,16.70
2023-03-30T21:46:24.441Z,16.78
2023-03-30T21:48:55.596Z,16.79
2023-03-30T21:51:26.354Z,16.79
2023-03-30T21:53:55.965Z,16.65
2023-03-30T21:56:25.879Z,16.41
2023-03-30T21:58:53.882Z,16.38
2023-03-30T22:01:26.076Z,16.50
2023-03-30T22:03:54.506Z,16.51
2023-03-30T22:06:23.013Z,16.32
2023-03-30T22:08:51.320Z,16.49
2023-03-30T22:11:21.332Z,16.48
2023-03-30T22:13:50.707Z,16.52
2023-03-30T22:16:19.879Z,16.66
2023-03-30T22:18:48.049Z,16.89
2023-03-30T22:21:22.008Z,17.05
2023-03-30T22:23:50.366Z,16.96
2023-03-30T22:26:18.379Z,16.95
2023-03-30T22:28:46.911Z,17.14
2023-03-30T22:31:16.883Z,17.04
2023-03-30T22:33:46.001Z,17.07
2023-03-30T22:36:19.567Z,17.07
2023-03-30T22:38:50.993Z,16.93
2023-03-30T22:41:23.907Z,17.02
2023-03-30T22:43:53.161Z,17.30
2023-03-30T22:46:21.693Z,17.32
2023-03-30T22:48:51.796Z,17.47
2023-03-30T22:51:27.821Z,17.44
2023-03-30T22:53:58.805Z,17.36
2023-03-30T22:56:32.059Z,17.27
2023-03-30T22:59:01.342Z,17.44
2023-03-30T23:01:32.567Z,17.40
2023-03-30T23:04:03.354Z,17.28
2023-03-30T23:09:08.079Z,13.51
2023-03-30T23:11:34.772Z,15.24
2023-03-30T23:14:04.421Z,15.40
2023-03-30T23:16:33.503Z,15.78
2023-03-30T23:19:00.933Z,15.90
2023-03-30T23:21:33.777Z,15.95
2023-03-30T23:24:04.394Z,16.11
2023-03-30T23:26:31.246Z,16.09
2023-03-30T23:28:57.978Z,16.09
2023-03-30T23:31:27.579Z,16.30
2023-03-30T23:33:54.739Z,16.44
2023-03-30T23:36:25.246Z,16.45
2023-03-30T23:38:51.939Z,16.61
2023-03-30T23:41:19.091Z,16.60
2023-03-30T23:43:47.970Z,16.73
2023-03-30T23:46:15.536Z,16.65
2023-03-30T23:48:42.160Z,16.55
2023-03-30T23:51:09.953Z,16.57
2023-03-30T23:53:39.484Z,16.50
2023-03-30T23:56:11.952Z,16.72
2023-03-30T23:58:39.667Z,16.62
